Time;durP1;ratioP1;P1;durP2;ratioP2;P2;SDS_P1;SDS_P2;PMS_P1;PMS_P2;Temp;Humidity;BMP_temperature;BMP_pressure;BME280_temperature;BME280_humidity;BME280_pressure;Samples;Min_cycle;Max_cycle;Signal;HPM_P1;HPM_P2
2021/07/27 00:00:08;;;;;;;8.30;7.50;;;;;;;;;;5053701;28;20550;-64
2021/07/27 00:02:33;;;;;;;6.60;6.03;;;;;;;;;;5053197;28;20547;-64
2021/07/27 00:04:58;;;;;;;6.53;6.00;;;;;;;;;;5052844;28;20483;-63
2021/07/27 00:07:24;;;;;;;8.60;7.47;;;;;;;;;;5053713;28;20217;-64
2021/07/27 00:09:49;;;;;;;7.37;6.67;;;;;;;;;;5053236;28;20228;-64
2021/07/27 00:12:15;;;;;;;7.07;6.47;;;;;;;;;;5053524;28;20467;-64
2021/07/27 00:14:40;;;;;;;7.63;6.30;;;;;;;;;;5050231;28;20296;-65
2021/07/27 00:17:05;;;;;;;7.30;6.60;;;;;;;;;;5051889;28;20534;-64
2021/07/27 00:19:31;;;;;;;5.77;5.27;;;;;;;;;;5052166;28;20329;-64
2021/07/27 00:21:56;;;;;;;7.23;6.63;;;;;;;;;;5053667;28;20221;-64
2021/07/27 00:24:26;;;;;;;9.47;6.33;;;;;;;;;;5053851;28;20213;-63
2021/07/27 00:26:51;;;;;;;6.93;6.10;;;;;;;;;;5052980;28;20671;-64
2021/07/27 00:29:16;;;;;;;7.37;6.67;;;;;;;;;;5053445;28;20494;-64
2021/07/27 00:31:41;;;;;;;6.20;5.70;;;;;;;;;;5052921;28;20525;-64
2021/07/27 00:34:07;;;;;;;7.17;6.40;;;;;;;;;;5057164;28;20264;-64
2021/07/27 00:36:32;;;;;;;7.10;6.50;;;;;;;;;;5057030;28;20312;-63
2021/07/27 00:38:58;;;;;;;6.83;6.30;;;;;;;;;;5057462;28;20607;-64
2021/07/27 00:41:23;;;;;;;6.47;5.87;;;;;;;;;;5057156;28;20221;-64
2021/07/27 00:43:48;;;;;;;6.70;6.10;;;;;;;;;;5056789;28;20538;-65
2021/07/27 00:46:13;;;;;;;7.40;6.37;;;;;;;;;;5057346;28;20216;-65
2021/07/27 00:48:39;;;;;;;6.97;6.33;;;;;;;;;;5056751;28;20282;-64
2021/07/27 00:51:04;;;;;;;8.90;6.90;;;;;;;;;;5057322;28;20521;-64
2021/07/27 00:53:30;;;;;;;8.50;6.43;;;;;;;;;;5057009;28;20212;-64
2021/07/27 00:55:55;;;;;;;7.53;6.77;;;;;;;;;;5055709;28;20213;-64
2021/07/27 00:58:20;;;;;;;8.27;7.53;;;;;;;;;;5056311;28;20239;-64
2021/07/27 01:00:46;;;;;;;9.40;8.60;;;;;;;;;;5056467;28;20304;-64
2021/07/27 01:03:11;;;;;;;8.23;6.87;;;;;;;;;;5056955;28;20258;-64
2021/07/27 01:05:36;;;;;;;7.40;6.70;;;;;;;;;;5056402;28;20362;-64
2021/07/27 01:08:02;;;;;;;8.27;7.47;;;;;;;;;;5056771;28;20220;-65
2021/07/27 01:10:27;;;;;;;7.37;6.77;;;;;;;;;;5056546;28;20290;-64
2021/07/27 01:12:53;;;;;;;7.50;6.87;;;;;;;;;;5056111;28;20258;-64
2021/07/27 01:15:18;;;;;;;8.07;7.40;;;;;;;;;;5055613;28;20560;-64
2021/07/27 01:17:44;;;;;;;7.60;6.90;;;;;;;;;;5056317;28;20344;-64
2021/07/27 01:20:34;;;;;;;7.13;6.53;;;;;;;;;;5056574;28;20217;-64
2021/07/27 01:42:06;;;;;;;7.63;7.00;;;;;;;;;;5054840;28;20455;-64
2021/07/27 01:44:33;;;;;;;8.00;7.23;;;;;;;;;;5056052;28;20216;-64
2021/07/27 01:46:59;;;;;;;7.10;6.50;;;;;;;;;;5055630;28;20456;-65
2021/07/27 01:49:24;;;;;;;8.10;7.40;;;;;;;;;;5048419;28;20471;-65
2021/07/27 01:51:52;;;;;;;7.47;6.77;;;;;;;;;;5035967;28;20287;-65
2021/07/27 01:54:23;;;;;;;7.80;7.20;;;;;;;;;;5043639;28;20221;-65
2021/07/27 01:56:49;;;;;;;7.70;7.00;;;;;;;;;;5055373;28;20463;-64
2021/07/27 01:59:14;;;;;;;7.80;7.00;;;;;;;;;;5054952;28;20525;-64
2021/07/27 02:01:40;;;;;;;7.87;7.17;;;;;;;;;;5054778;28;20217;-64
2021/07/27 02:04:06;;;;;;;8.50;7.27;;;;;;;;;;5054841;28;20213;-64
2021/07/27 02:06:31;;;;;;;7.80;7.10;;;;;;;;;;5054603;28;20755;-65
2021/07/27 02:09:01;;;;;;;7.73;6.93;;;;;;;;;;5055113;28;20456;-65
2021/07/27 02:11:35;;;;;;;8.83;8.00;;;;;;;;;;5055560;28;20217;-64
2021/07/27 02:14:00;;;;;;;8.13;7.33;;;;;;;;;;5055224;28;20452;-64
2021/07/27 02:16:25;;;;;;;7.97;7.20;;;;;;;;;;5055360;28;20801;-65
2021/07/27 02:18:51;;;;;;;8.17;7.37;;;;;;;;;;5054953;28;20229;-64
2021/07/27 02:21:17;;;;;;;8.10;7.30;;;;;;;;;;5055302;28;20375;-64
2021/07/27 02:23:42;;;;;;;8.30;7.70;;;;;;;;;;5055037;28;20228;-63
2021/07/27 02:26:08;;;;;;;7.90;7.17;;;;;;;;;;5055517;28;20452;-63
2021/07/27 02:28:33;;;;;;;8.70;7.93;;;;;;;;;;5055337;28;20725;-63
2021/07/27 02:31:01;;;;;;;8.03;7.27;;;;;;;;;;5054636;28;20255;-63
2021/07/27 02:33:28;;;;;;;7.47;6.77;;;;;;;;;;5055179;28;20228;-63
2021/07/27 02:35:53;;;;;;;7.70;7.00;;;;;;;;;;5054676;28;20514;-63
2021/07/27 02:38:19;;;;;;;9.40;8.13;;;;;;;;;;5055165;28;20468;-63
2021/07/27 02:40:44;;;;;;;9.10;8.20;;;;;;;;;;5054586;28;20660;-63
2021/07/27 02:43:10;;;;;;;7.93;7.13;;;;;;;;;;5055018;28;20301;-63
2021/07/27 02:45:36;;;;;;;8.80;7.90;;;;;;;;;;5054818;28;20648;-63
2021/07/27 02:48:06;;;;;;;8.60;7.90;;;;;;;;;;5054363;28;20217;-64
2021/07/27 02:50:34;;;;;;;7.77;7.17;;;;;;;;;;5045248;28;20472;-63
2021/07/27 02:52:59;;;;;;;8.80;7.37;;;;;;;;;;5034128;28;20464;-63
2021/07/27 02:55:24;;;;;;;8.17;7.37;;;;;;;;;;5056737;28;20467;-64
2021/07/27 02:57:50;;;;;;;8.40;7.70;;;;;;;;;;5062371;28;20319;-64
2021/07/27 03:00:16;;;;;;;9.07;8.17;;;;;;;;;;5067681;28;20576;-65
2021/07/27 03:02:44;;;;;;;9.03;8.20;;;;;;;;;;5065032;28;20232;-65
2021/07/27 03:05:11;;;;;;;8.97;8.07;;;;;;;;;;5060831;28;20837;-65
2021/07/27 03:07:49;;;;;;;8.30;7.60;;;;;;;;;;5063080;28;20471;-63
2021/07/27 03:10:22;;;;;;;8.53;7.70;;;;;;;;;;5067511;28;20470;-62
2021/07/27 03:12:52;;;;;;;7.20;6.57;;;;;;;;;;5067341;28;20845;-64
2021/07/27 03:15:25;;;;;;;14.57;7.70;;;;;;;;;;5061980;28;20482;-66
2021/07/27 03:17:56;;;;;;;7.63;6.93;;;;;;;;;;5060872;28;20472;-64
2021/07/27 03:20:21;;;;;;;7.03;6.43;;;;;;;;;;5063967;28;21435;-64
2021/07/27 03:22:47;;;;;;;7.50;6.73;;;;;;;;;;5067542;28;20542;-64
2021/07/27 03:25:17;;;;;;;9.13;8.20;;;;;;;;;;5063126;28;20311;-63
2021/07/27 03:27:43;;;;;;;18.00;16.30;;;;;;;;;;5060746;28;20227;-63
2021/07/27 03:30:09;;;;;;;9.27;8.47;;;;;;;;;;5063542;28;20936;-64
2021/07/27 03:32:35;;;;;;;18.17;16.23;;;;;;;;;;5067298;28;20217;-64
2021/07/27 03:35:00;;;;;;;22.27;19.93;;;;;;;;;;5063470;28;20477;-63
2021/07/27 03:37:25;;;;;;;14.20;12.70;;;;;;;;;;5060398;28;20790;-64
2021/07/27 03:39:51;;;;;;;8.80;7.90;;;;;;;;;;5064644;28;20313;-64
2021/07/27 03:42:16;;;;;;;22.40;20.13;;;;;;;;;;5066741;28;20224;-64
2021/07/27 03:44:42;;;;;;;17.00;15.33;;;;;;;;;;5062964;28;20251;-64
2021/07/27 03:47:07;;;;;;;9.53;8.63;;;;;;;;;;5059693;28;20302;-63
2021/07/27 03:49:33;;;;;;;19.07;17.03;;;;;;;;;;5065259;28;20225;-62
2021/07/27 03:52:03;;;;;;;33.07;29.70;;;;;;;;;;5049160;28;20247;-63
2021/07/27 03:54:29;;;;;;;16.10;14.50;;;;;;;;;;5051581;28;20240;-63
2021/07/27 03:56:54;;;;;;;17.77;15.70;;;;;;;;;;5052351;28;20525;-64
2021/07/27 03:59:20;;;;;;;18.47;16.73;;;;;;;;;;5054637;28;20479;-63
2021/07/27 04:01:45;;;;;;;16.47;14.83;;;;;;;;;;5057172;28;20235;-64
2021/07/27 04:04:10;;;;;;;18.77;16.97;;;;;;;;;;5062356;28;20237;-64
2021/07/27 04:06:36;;;;;;;14.03;12.70;;;;;;;;;;5067067;28;20217;-63
2021/07/27 04:09:01;;;;;;;24.50;19.37;;;;;;;;;;5067926;28;20339;-63
2021/07/27 04:11:26;;;;;;;13.63;12.33;;;;;;;;;;5064357;28;20660;-64
2021/07/27 04:13:52;;;;;;;24.23;21.20;;;;;;;;;;5066781;28;20622;-63
2021/07/27 04:16:17;;;;;;;16.67;14.97;;;;;;;;;;5064699;28;20242;-64
2021/07/27 04:18:43;;;;;;;16.87;15.17;;;;;;;;;;5068394;28;20216;-64
2021/07/27 04:21:08;;;;;;;17.27;15.30;;;;;;;;;;5063817;28;20223;-65
2021/07/27 04:23:33;;;;;;;15.70;14.10;;;;;;;;;;5067134;28;20304;-63
2021/07/27 04:25:58;;;;;;;14.03;12.67;;;;;;;;;;5061734;28;20541;-63
2021/07/27 04:28:24;;;;;;;14.77;13.33;;;;;;;;;;5067062;28;20221;-63
2021/07/27 04:30:50;;;;;;;16.73;14.97;;;;;;;;;;5070649;28;20228;-64
2021/07/27 04:33:18;;;;;;;12.70;11.40;;;;;;;;;;5067059;28;20277;-63
2021/07/27 04:35:43;;;;;;;11.87;10.67;;;;;;;;;;5063761;28;20250;-63
2021/07/27 04:38:08;;;;;;;13.93;12.73;;;;;;;;;;5066762;28;20521;-64
2021/07/27 04:40:34;;;;;;;12.80;11.50;;;;;;;;;;5070630;28;20240;-63
2021/07/27 04:42:59;;;;;;;13.70;12.40;;;;;;;;;;5066862;28;20311;-64
2021/07/27 04:45:24;;;;;;;13.47;12.07;;;;;;;;;;5063235;28;20227;-63
2021/07/27 04:47:49;;;;;;;13.80;11.10;;;;;;;;;;5076623;28;20667;-64
2021/07/27 04:50:15;;;;;;;10.23;9.23;;;;;;;;;;5062995;28;20216;-63
2021/07/27 04:52:48;;;;;;;11.13;10.10;;;;;;;;;;5050039;28;20216;-64
2021/07/27 04:55:14;;;;;;;10.70;9.70;;;;;;;;;;5061306;28;20271;-64
2021/07/27 04:57:39;;;;;;;9.70;8.90;;;;;;;;;;5070004;28;20502;-62
2021/07/27 05:00:27;;;;;;;10.90;9.80;;;;;;;;;;5068328;28;20618;-63
2021/07/27 05:02:52;;;;;;;9.87;8.97;;;;;;;;;;5053185;28;20212;-63
2021/07/27 05:05:18;;;;;;;10.60;9.60;;;;;;;;;;5062847;28;20467;-64
2021/07/27 05:07:45;;;;;;;9.60;8.70;;;;;;;;;;5068645;28;20310;-63
2021/07/27 05:10:10;;;;;;;9.30;8.50;;;;;;;;;;5069476;28;20228;-64
2021/07/27 05:12:37;;;;;;;9.83;9.00;;;;;;;;;;5064406;28;20599;-62
2021/07/27 05:15:03;;;;;;;8.67;7.87;;;;;;;;;;5063297;28;20303;-64
2021/07/27 05:17:29;;;;;;;8.57;7.87;;;;;;;;;;5067529;28;20523;-65
2021/07/27 05:19:54;;;;;;;9.33;8.43;;;;;;;;;;5068303;28;20619;-63
2021/07/27 05:22:21;;;;;;;7.63;7.03;;;;;;;;;;5063793;28;20242;-64
2021/07/27 05:24:46;;;;;;;8.33;7.60;;;;;;;;;;5063085;28;20227;-65
2021/07/27 05:27:12;;;;;;;10.60;8.77;;;;;;;;;;5065061;28;20463;-64
2021/07/27 05:29:37;;;;;;;8.73;7.93;;;;;;;;;;5062737;28;20565;-64
2021/07/27 05:32:02;;;;;;;8.60;6.87;;;;;;;;;;5068153;28;20217;-64
2021/07/27 05:34:28;;;;;;;7.33;6.60;;;;;;;;;;5069135;28;20216;-63
2021/07/27 05:36:53;;;;;;;8.00;7.30;;;;;;;;;;5063852;28;20308;-63
2021/07/27 05:39:18;;;;;;;8.53;7.80;;;;;;;;;;5062184;28;20595;-65
2021/07/27 05:41:43;;;;;;;8.57;7.67;;;;;;;;;;5068560;28;20300;-64
2021/07/27 05:44:10;;;;;;;9.00;8.20;;;;;;;;;;5069069;28;20216;-64
2021/07/27 05:46:35;;;;;;;21.70;19.47;;;;;;;;;;5063448;28;20652;-64
2021/07/27 05:49:01;;;;;;;41.80;37.57;;;;;;;;;;5069802;28;20470;-65
2021/07/27 05:51:26;;;;;;;34.33;30.67;;;;;;;;;;5048008;28;20229;-64
2021/07/27 05:53:52;;;;;;;17.40;15.73;;;;;;;;;;5058594;28;20473;-64
2021/07/27 05:56:17;;;;;;;14.73;13.23;;;;;;;;;;5062624;28;20216;-63
2021/07/27 05:58:42;;;;;;;18.17;16.27;;;;;;;;;;5062097;28;20213;-65
2021/07/27 06:01:08;;;;;;;16.93;15.13;;;;;;;;;;5068282;28;20316;-64
2021/07/27 06:03:33;;;;;;;17.20;14.93;;;;;;;;;;5069087;28;20223;-65
2021/07/27 06:05:58;;;;;;;18.40;16.60;;;;;;;;;;5062419;28;20557;-64
2021/07/27 06:08:24;;;;;;;19.27;17.23;;;;;;;;;;5061907;28;20235;-65
2021/07/27 06:10:49;;;;;;;32.40;28.90;;;;;;;;;;5048897;28;20655;-65
2021/07/27 06:13:14;;;;;;;16.90;15.20;;;;;;;;;;5061586;28;20304;-65
2021/07/27 06:15:39;;;;;;;15.30;13.27;;;;;;;;;;5068946;28;20296;-64
2021/07/27 06:18:05;;;;;;;15.50;12.50;;;;;;;;;;5068374;28;20300;-64
2021/07/27 06:20:30;;;;;;;12.67;10.27;;;;;;;;;;5061303;28;20220;-65
2021/07/27 06:22:55;;;;;;;18.83;16.17;;;;;;;;;;5062611;28;20704;-64
2021/07/27 06:25:20;;;;;;;14.20;12.27;;;;;;;;;;5068213;28;20221;-64
2021/07/27 06:27:46;;;;;;;11.10;10.00;;;;;;;;;;5066551;28;20304;-64
2021/07/27 06:30:12;;;;;;;17.00;12.83;;;;;;;;;;5060525;28;20225;-63
2021/07/27 06:32:38;;;;;;;12.20;11.00;;;;;;;;;;5062813;28;20227;-63
2021/07/27 06:35:03;;;;;;;12.47;10.70;;;;;;;;;;5068448;28;20539;-64
2021/07/27 06:37:28;;;;;;;11.53;9.60;;;;;;;;;;5066389;28;20233;-65
2021/07/27 06:39:54;;;;;;;10.90;9.73;;;;;;;;;;5059554;28;20230;-64
2021/07/27 06:42:19;;;;;;;11.57;10.40;;;;;;;;;;5062650;28;20239;-64
2021/07/27 06:44:44;;;;;;;9.77;8.87;;;;;;;;;;5067030;28;20300;-64
2021/07/27 06:47:10;;;;;;;10.03;8.10;;;;;;;;;;5061731;28;20217;-65
2021/07/27 06:49:35;;;;;;;10.50;8.60;;;;;;;;;;5068581;28;20565;-65
2021/07/27 06:52:00;;;;;;;11.03;9.87;;;;;;;;;;5058311;28;20237;-64
2021/07/27 06:54:25;;;;;;;9.83;8.63;;;;;;;;;;5068991;28;20227;-64
2021/07/27 06:56:55;;;;;;;10.20;8.83;;;;;;;;;;5062433;28;20240;-64
2021/07/27 06:59:22;;;;;;;9.30;8.23;;;;;;;;;;5065912;28;20232;-64
2021/07/27 07:01:47;;;;;;;9.03;7.33;;;;;;;;;;5061949;28;20546;-64
2021/07/27 07:04:12;;;;;;;7.60;5.70;;;;;;;;;;5067295;28;20540;-64
2021/07/27 07:06:38;;;;;;;9.00;6.53;;;;;;;;;;5065442;28;20299;-64
2021/07/27 07:09:03;;;;;;;7.23;6.53;;;;;;;;;;5068849;28;20227;-63
2021/07/27 07:11:28;;;;;;;5.87;5.27;;;;;;;;;;5065741;28;20220;-65
2021/07/27 07:13:54;;;;;;;7.47;6.70;;;;;;;;;;5060717;28;20299;-64
2021/07/27 07:16:19;;;;;;;7.70;6.87;;;;;;;;;;5061955;28;20229;-65
2021/07/27 07:18:44;;;;;;;6.77;5.40;;;;;;;;;;5067642;28;20217;-65
2021/07/27 07:21:10;;;;;;;5.70;5.20;;;;;;;;;;5065554;28;20228;-63
2021/07/27 07:23:36;;;;;;;8.50;6.23;;;;;;;;;;5060249;28;20458;-65
2021/07/27 07:26:05;;;;;;;8.13;6.60;;;;;;;;;;5062865;28;20703;-64
2021/07/27 07:28:30;;;;;;;4.97;4.60;;;;;;;;;;5066799;28;20221;-63
2021/07/27 07:30:55;;;;;;;8.27;6.90;;;;;;;;;;5065185;28;20779;-64
2021/07/27 07:33:21;;;;;;;4.87;4.47;;;;;;;;;;5059847;28;20299;-64
2021/07/27 07:35:46;;;;;;;6.80;4.90;;;;;;;;;;5063072;28;20228;-64
2021/07/27 07:38:11;;;;;;;6.10;5.60;;;;;;;;;;5067478;28;20248;-64
2021/07/27 07:40:36;;;;;;;6.17;5.03;;;;;;;;;;5064128;28;20732;-64
2021/07/27 07:43:02;;;;;;;6.93;5.53;;;;;;;;;;5059577;28;20220;-63
2021/07/27 07:45:29;;;;;;;5.20;4.40;;;;;;;;;;5063015;28;20227;-64
2021/07/27 07:47:54;;;;;;;5.47;4.80;;;;;;;;;;5064400;28;20216;-65
2021/07/27 07:50:21;;;;;;;5.20;4.70;;;;;;;;;;5056542;28;20566;-64
2021/07/27 07:52:46;;;;;;;5.10;4.60;;;;;;;;;;5057602;28;20640;-64
2021/07/27 07:55:11;;;;;;;5.73;4.67;;;;;;;;;;5069005;28;20471;-65
2021/07/27 07:57:38;;;;;;;5.30;4.80;;;;;;;;;;5055736;28;20229;-66
2021/07/27 08:00:05;;;;;;;4.67;3.73;;;;;;;;;;5051203;28;20217;-63
2021/07/27 08:02:30;;;;;;;6.27;4.70;;;;;;;;;;5056138;28;20491;-64
2021/07/27 08:04:56;;;;;;;6.27;4.90;;;;;;;;;;5060945;28;20515;-64
2021/07/27 08:07:22;;;;;;;4.90;4.40;;;;;;;;;;5064343;28;20279;-65
2021/07/27 08:09:47;;;;;;;5.30;4.80;;;;;;;;;;5065199;28;20248;-64
2021/07/27 08:12:13;;;;;;;5.30;4.37;;;;;;;;;;5059601;28;20652;-65
2021/07/27 08:14:38;;;;;;;8.80;4.93;;;;;;;;;;5061413;28;20644;-64
2021/07/27 08:17:04;;;;;;;5.50;4.90;;;;;;;;;;5062336;28;20543;-64
2021/07/27 08:19:31;;;;;;;5.37;4.87;;;;;;;;;;5064435;28;20630;-64
2021/07/27 08:21:56;;;;;;;5.40;4.97;;;;;;;;;;5060226;28;20554;-63
2021/07/27 08:24:21;;;;;;;7.90;5.13;;;;;;;;;;5073083;28;20459;-64
2021/07/27 08:26:46;;;;;;;4.80;4.30;;;;;;;;;;5051799;28;20221;-65
2021/07/27 08:29:12;;;;;;;4.77;4.33;;;;;;;;;;5037595;28;20579;-66
2021/07/27 08:31:37;;;;;;;4.90;4.50;;;;;;;;;;5049219;28;20221;-65
2021/07/27 08:34:02;;;;;;;4.80;4.40;;;;;;;;;;5060815;28;20303;-64
2021/07/27 08:36:28;;;;;;;7.00;4.73;;;;;;;;;;5046895;28;20290;-64
2021/07/27 08:38:53;;;;;;;16.37;13.90;;;;;;;;;;5063065;28;20636;-64
2021/07/27 08:41:20;;;;;;;18.73;16.80;;;;;;;;;;5069333;28;20223;-65
2021/07/27 08:43:45;;;;;;;13.10;11.90;;;;;;;;;;5057318;28;20275;-64
2021/07/27 08:46:15;;;;;;;15.60;14.00;;;;;;;;;;5047405;28;20467;-64
2021/07/27 08:48:40;;;;;;;30.33;27.23;;;;;;;;;;5056042;28;20214;-64
2021/07/27 08:51:06;;;;;;;26.83;24.00;;;;;;;;;;5048805;28;20460;-64
2021/07/27 08:53:31;;;;;;;11.97;10.70;;;;;;;;;;5055075;28;20227;-64
2021/07/27 08:55:59;;;;;;;19.47;17.47;;;;;;;;;;5070161;28;20221;-64
2021/07/27 08:58:24;;;;;;;19.33;17.43;;;;;;;;;;5062288;28;20267;-66
2021/07/27 09:00:49;;;;;;;21.87;19.67;;;;;;;;;;5071539;28;20851;-64
2021/07/27 09:03:20;;;;;;;25.33;21.70;;;;;;;;;;5065554;28;20270;-65
2021/07/27 09:05:46;;;;;;;15.10;13.73;;;;;;;;;;5060163;28;20227;-64
2021/07/27 09:08:11;;;;;;;13.47;11.33;;;;;;;;;;5065437;28;20551;-64
2021/07/27 09:10:38;;;;;;;14.80;12.97;;;;;;;;;;5066161;28;20217;-65
2021/07/27 09:13:09;;;;;;;17.53;15.80;;;;;;;;;;5062990;28;20221;-62
2021/07/27 09:15:35;;;;;;;8.10;7.37;;;;;;;;;;5066074;28;20486;-64
2021/07/27 09:18:14;;;;;;;15.13;13.83;;;;;;;;;;5064177;28;20491;-66
2021/07/27 09:20:41;;;;;;;9.30;8.40;;;;;;;;;;5050232;28;20868;-67
2021/07/27 09:23:18;;;;;;;13.53;12.23;;;;;;;;;;5062734;28;20543;-65
2021/07/27 09:25:50;;;;;;;12.03;10.90;;;;;;;;;;5067564;28;20542;-65
2021/07/27 09:28:17;;;;;;;16.07;14.57;;;;;;;;;;5069696;28;20464;-65
2021/07/27 09:30:43;;;;;;;11.30;10.10;;;;;;;;;;5065282;28;20435;-63
2021/07/27 09:33:10;;;;;;;8.47;7.53;;;;;;;;;;5062511;28;20460;-63
2021/07/27 09:35:36;;;;;;;7.00;6.40;;;;;;;;;;5069710;28;20466;-65
2021/07/27 09:38:02;;;;;;;9.37;7.40;;;;;;;;;;5065483;28;20474;-65
2021/07/27 09:40:28;;;;;;;8.87;7.97;;;;;;;;;;5056547;28;20482;-65
2021/07/27 09:42:53;;;;;;;7.50;6.80;;;;;;;;;;5069238;28;20463;-65
2021/07/27 09:45:18;;;;;;;9.30;8.50;;;;;;;;;;5063343;28;20683;-64
2021/07/27 09:47:48;;;;;;;8.70;7.80;;;;;;;;;;5062038;28;20536;-63
2021/07/27 09:50:16;;;;;;;5.97;5.43;;;;;;;;;;5074020;28;20656;-65
2021/07/27 09:52:43;;;;;;;8.27;7.53;;;;;;;;;;5060919;28;20820;-63
2021/07/27 09:55:10;;;;;;;9.93;8.53;;;;;;;;;;5064534;28;20471;-64
2021/07/27 09:57:35;;;;;;;9.37;7.70;;;;;;;;;;5068660;28;20471;-64
2021/07/27 10:00:01;;;;;;;9.37;8.47;;;;;;;;;;5066952;28;20985;-64
2021/07/27 10:02:26;;;;;;;7.03;6.30;;;;;;;;;;5060946;28;20228;-64
2021/07/27 10:04:53;;;;;;;6.80;6.20;;;;;;;;;;5062854;28;20229;-64
2021/07/27 10:07:28;;;;;;;8.30;6.13;;;;;;;;;;5068259;28;20402;-65
2021/07/27 10:10:04;;;;;;;16.50;14.87;;;;;;;;;;5066653;28;20462;-65
2021/07/27 10:12:34;;;;;;;11.70;10.40;;;;;;;;;;5047613;28;20474;-63
2021/07/27 10:15:09;;;;;;;16.27;14.57;;;;;;;;;;5062156;28;20471;-63
2021/07/27 10:17:34;;;;;;;9.13;8.30;;;;;;;;;;5066398;28;20947;-64
2021/07/27 10:20:00;;;;;;;11.50;9.43;;;;;;;;;;5067808;28;20467;-63
2021/07/27 10:22:32;;;;;;;19.27;17.23;;;;;;;;;;5063919;28;20255;-65
2021/07/27 10:24:58;;;;;;;15.53;13.67;;;;;;;;;;5061776;28;20447;-63
2021/07/27 10:27:26;;;;;;;17.97;16.17;;;;;;;;;;5066057;28;20537;-64
2021/07/27 10:29:52;;;;;;;23.73;21.37;;;;;;;;;;5067930;28;20232;-64
2021/07/27 10:32:19;;;;;;;10.47;9.57;;;;;;;;;;5064450;28;20470;-63
2021/07/27 10:34:45;;;;;;;13.87;12.47;;;;;;;;;;5063955;28;20772;-63
2021/07/27 10:37:12;;;;;;;14.60;13.20;;;;;;;;;;5069378;28;20471;-63
2021/07/27 10:39:59;;;;;;;17.30;15.63;;;;;;;;;;5058783;28;20228;-65
2021/07/27 10:42:26;;;;;;;9.17;8.37;;;;;;;;;;5066632;28;20474;-64
2021/07/27 10:44:52;;;;;;;13.23;12.07;;;;;;;;;;5067933;28;20487;-64
2021/07/27 10:47:29;;;;;;;14.43;13.03;;;;;;;;;;5065893;28;20516;-65
2021/07/27 10:50:07;;;;;;;11.20;8.73;;;;;;;;;;5060705;28;20307;-63
2021/07/27 10:52:33;;;;;;;10.80;9.80;;;;;;;;;;5047803;28;20462;-63
2021/07/27 10:55:00;;;;;;;11.43;10.33;;;;;;;;;;5064493;28;20569;-64
2021/07/27 10:57:37;;;;;;;11.50;10.47;;;;;;;;;;5067688;28;20463;-64
2021/07/27 11:00:04;;;;;;;10.17;9.27;;;;;;;;;;5065761;28;20455;-65
2021/07/27 11:02:30;;;;;;;9.33;8.27;;;;;;;;;;5061019;28;20462;-64
2021/07/27 11:04:55;;;;;;;9.70;8.03;;;;;;;;;;5062281;28;20546;-64
2021/07/27 11:07:20;;;;;;;12.40;11.30;;;;;;;;;;5067612;28;20228;-64
2021/07/27 11:09:53;;;;;;;9.47;8.57;;;;;;;;;;5065541;28;20277;-63
2021/07/27 11:12:29;;;;;;;9.50;8.57;;;;;;;;;;5060656;28;20615;-64
2021/07/27 11:15:14;;;;;;;7.73;7.10;;;;;;;;;;5067754;28;20446;-64
2021/07/27 11:17:47;;;;;;;6.17;5.60;;;;;;;;;;5063349;28;20540;-63
2021/07/27 11:20:14;;;;;;;6.40;5.80;;;;;;;;;;5069319;28;20464;-65
2021/07/27 11:22:46;;;;;;;6.17;5.77;;;;;;;;;;5065075;28;20490;-64
2021/07/27 11:25:12;;;;;;;5.00;4.50;;;;;;;;;;5055329;28;20555;-63
2021/07/27 11:27:37;;;;;;;5.77;5.17;;;;;;;;;;5062635;28;20543;-64
2021/07/27 11:30:04;;;;;;;5.83;5.23;;;;;;;;;;5066960;28;20558;-64
2021/07/27 11:32:40;;;;;;;6.27;5.53;;;;;;;;;;5054029;28;20221;-64
2021/07/27 11:35:06;;;;;;;4.60;4.20;;;;;;;;;;5065648;28;20451;-64
2021/07/27 11:37:31;;;;;;;5.17;4.77;;;;;;;;;;5056736;28;20533;-63
2021/07/27 11:39:57;;;;;;;6.50;5.90;;;;;;;;;;5063683;28;20279;-64
2021/07/27 11:42:31;;;;;;;5.50;5.00;;;;;;;;;;5064486;28;20281;-64
2021/07/27 11:45:00;;;;;;;5.97;5.40;;;;;;;;;;5046015;28;20227;-63
2021/07/27 11:47:39;;;;;;;4.93;4.53;;;;;;;;;;5058174;28;20470;-63
2021/07/27 11:50:05;;;;;;;3.90;3.50;;;;;;;;;;5062350;28;20496;-63
2021/07/27 11:52:31;;;;;;;5.40;4.90;;;;;;;;;;5042168;28;23102;-64
2021/07/27 11:55:03;;;;;;;6.47;5.37;;;;;;;;;;5063931;28;20459;-64
2021/07/27 11:57:29;;;;;;;4.37;3.97;;;;;;;;;;5066745;28;20291;-64
2021/07/27 12:00:11;;;;;;;4.77;4.27;;;;;;;;;;5063357;28;20911;-64
2021/07/27 12:02:36;;;;;;;4.90;4.23;;;;;;;;;;5059839;28;20312;-63
2021/07/27 12:05:02;;;;;;;4.90;4.50;;;;;;;;;;5060550;28;20977;-64
2021/07/27 12:07:29;;;;;;;4.30;3.90;;;;;;;;;;5065893;28;20221;-64
2021/07/27 12:09:54;;;;;;;6.40;5.50;;;;;;;;;;5065877;28;20224;-64
2021/07/27 12:12:19;;;;;;;5.60;3.97;;;;;;;;;;5057949;28;20520;-64
2021/07/27 12:14:44;;;;;;;4.63;4.23;;;;;;;;;;5061179;28;20302;-64
2021/07/27 12:17:10;;;;;;;5.40;4.33;;;;;;;;;;5067155;28;20306;-63
2021/07/27 12:19:35;;;;;;;3.33;3.10;;;;;;;;;;5066094;28;20236;-63
2021/07/27 12:22:00;;;;;;;3.93;3.53;;;;;;;;;;5054578;28;20300;-64
2021/07/27 12:24:26;;;;;;;4.50;4.10;;;;;;;;;;5066041;28;20224;-64
2021/07/27 12:26:52;;;;;;;5.23;4.13;;;;;;;;;;5060014;28;20220;-64
2021/07/27 12:29:17;;;;;;;4.63;4.23;;;;;;;;;;5063895;28;20469;-64
2021/07/27 12:31:42;;;;;;;3.93;3.63;;;;;;;;;;5067571;28;20652;-63
2021/07/27 12:34:08;;;;;;;3.17;2.97;;;;;;;;;;5065347;28;20641;-63
2021/07/27 12:36:34;;;;;;;3.63;3.30;;;;;;;;;;5071215;28;20251;-64
2021/07/27 12:38:59;;;;;;;4.23;3.93;;;;;;;;;;5065144;28;20248;-64
2021/07/27 12:41:24;;;;;;;4.77;4.00;;;;;;;;;;5059671;28;20814;-64
2021/07/27 12:43:50;;;;;;;4.67;4.27;;;;;;;;;;5068411;28;20224;-64
2021/07/27 12:46:17;;;;;;;4.90;4.23;;;;;;;;;;5051476;28;20301;-63
2021/07/27 12:48:42;;;;;;;4.30;3.90;;;;;;;;;;5065416;28;20320;-64
2021/07/27 12:51:14;;;;;;;4.60;4.17;;;;;;;;;;5045434;28;20790;-64
2021/07/27 12:53:39;;;;;;;8.20;3.90;;;;;;;;;;5060345;28;20307;-64
2021/07/27 12:56:04;;;;;;;4.13;3.60;;;;;;;;;;5063192;28;20549;-64
2021/07/27 12:58:30;;;;;;;4.60;3.93;;;;;;;;;;5064650;28;20236;-64
2021/07/27 13:00:59;;;;;;;4.00;3.60;;;;;;;;;;5069822;28;20352;-64
2021/07/27 13:03:24;;;;;;;4.43;4.03;;;;;;;;;;5069737;28;20675;-64
2021/07/27 13:05:49;;;;;;;4.10;3.70;;;;;;;;;;5058028;28;20476;-64
2021/07/27 13:08:15;;;;;;;3.60;3.30;;;;;;;;;;5069656;28;20224;-63
2021/07/27 13:10:40;;;;;;;4.60;3.67;;;;;;;;;;5063348;28;20228;-64
2021/07/27 13:13:06;;;;;;;4.53;4.13;;;;;;;;;;5064538;28;20241;-64
2021/07/27 13:15:31;;;;;;;3.60;3.00;;;;;;;;;;5071259;28;20225;-66
2021/07/27 13:17:57;;;;;;;4.97;3.50;;;;;;;;;;5069700;28;20556;-64
2021/07/27 13:20:23;;;;;;;4.23;3.60;;;;;;;;;;5063245;28;20235;-64
2021/07/27 13:22:48;;;;;;;3.17;2.87;;;;;;;;;;5066045;28;20467;-64
2021/07/27 13:25:13;;;;;;;4.43;3.40;;;;;;;;;;5070781;28;20589;-64
2021/07/27 13:27:39;;;;;;;6.50;3.40;;;;;;;;;;5068837;28;20277;-64
2021/07/27 13:30:05;;;;;;;3.50;2.90;;;;;;;;;;5063833;28;20228;-64
2021/07/27 13:32:30;;;;;;;3.13;2.83;;;;;;;;;;5068368;28;20252;-64
2021/07/27 13:34:59;;;;;;;3.10;2.90;;;;;;;;;;5063135;28;20527;-64
2021/07/27 13:37:24;;;;;;;3.27;2.97;;;;;;;;;;5072269;28;20655;-64
2021/07/27 13:39:49;;;;;;;3.73;3.43;;;;;;;;;;5061430;28;20454;-64
2021/07/27 13:42:15;;;;;;;3.70;3.40;;;;;;;;;;5068472;28;20250;-64
2021/07/27 13:44:40;;;;;;;3.53;2.67;;;;;;;;;;5064979;28;20248;-64
2021/07/27 13:47:06;;;;;;;2.97;2.77;;;;;;;;;;5069269;28;20459;-64
2021/07/27 13:49:31;;;;;;;3.70;2.77;;;;;;;;;;5068331;28;20213;-64
2021/07/27 13:51:56;;;;;;;3.20;2.90;;;;;;;;;;5045976;28;20543;-65
2021/07/27 13:54:22;;;;;;;4.40;4.00;;;;;;;;;;5070592;28;20300;-63
2021/07/27 13:56:47;;;;;;;3.33;3.03;;;;;;;;;;5070003;28;20227;-63
2021/07/27 13:59:12;;;;;;;3.37;3.00;;;;;;;;;;5063903;28;20220;-64
2021/07/27 14:01:37;;;;;;;4.27;3.23;;;;;;;;;;5065222;28;20316;-63
2021/07/27 14:04:03;;;;;;;3.00;2.80;;;;;;;;;;5069200;28;20240;-66
2021/07/27 14:06:28;;;;;;;3.00;2.70;;;;;;;;;;5067395;28;20615;-63
2021/07/27 14:08:54;;;;;;;4.90;4.20;;;;;;;;;;5062993;28;20221;-64
2021/07/27 14:11:19;;;;;;;3.40;2.87;;;;;;;;;;5064820;28;20581;-65
2021/07/27 14:13:44;;;;;;;3.10;2.40;;;;;;;;;;5063080;28;20304;-64
2021/07/27 14:16:10;;;;;;;3.43;2.77;;;;;;;;;;5064977;28;20228;-64
2021/07/27 14:18:35;;;;;;;3.10;2.90;;;;;;;;;;5068856;28;20708;-63
2021/07/27 14:21:04;;;;;;;3.20;2.63;;;;;;;;;;5065376;28;20220;-63
2021/07/27 14:23:29;;;;;;;4.33;2.93;;;;;;;;;;5061623;28;20273;-64
2021/07/27 14:25:57;;;;;;;2.57;2.37;;;;;;;;;;5064370;28;20464;-64
2021/07/27 14:28:23;;;;;;;4.33;2.50;;;;;;;;;;5054564;28;20720;-65
2021/07/27 14:30:48;;;;;;;4.90;3.00;;;;;;;;;;5064971;28;20467;-64
2021/07/27 14:33:13;;;;;;;3.67;2.93;;;;;;;;;;5061063;28;20588;-64
2021/07/27 14:35:40;;;;;;;3.50;3.20;;;;;;;;;;5063136;28;20303;-63
2021/07/27 14:38:05;;;;;;;3.43;3.13;;;;;;;;;;5068005;28;20231;-64
2021/07/27 14:40:33;;;;;;;3.37;3.07;;;;;;;;;;5055799;28;20472;-63
2021/07/27 14:42:58;;;;;;;3.50;3.20;;;;;;;;;;5066866;28;20229;-64
2021/07/27 14:45:24;;;;;;;3.20;2.87;;;;;;;;;;5064426;28;20796;-63
2021/07/27 14:47:49;;;;;;;3.37;2.90;;;;;;;;;;5061194;28;20217;-63
2021/07/27 14:50:14;;;;;;;5.10;3.00;;;;;;;;;;5073601;28;20571;-64